Friday, April 20, 2018, 6:32 AM EDT
Back to Local

KART, Watertown International Airport

Location: Dexter, NY, United States Lat: 43.983
Local Time: 6:32 AM EDT (10:32 GMT) Lon: -76.033
Time Zone: US/Eastern Elev: 324 ft

Show me the last for .
Show Coded

Time T Td Feel RH Dir Speed Gust Alt SLP Vis Weather Sky Remarks
2018-04-20 05:56 31 23 23 72 310° 9 - 30.17 30.18 10 OVC042 None
2018-04-20 03:56 29 23 21 78 280° 8 - 30.12 30.14 10 FEW040 None
2018-04-20 02:56 28 23 23 81 270° 5 - 30.11 30.12 10 CLR None
2018-04-20 01:56 30 24 22 78 310° 8 - 30.10 30.11 10 BKN055 6-hr Precip Total (2am): 0.00"
6-hr Min Temp (2am): 30.0°F
6-hr Max Temp (2am): 33.1°F
2018-04-20 00:56 32 25 24 74 310° 10 - 30.09 30.10 10 BKN120 24-hr Min Temp (1am): 30.0°F
24-hr Max Temp (1am): 37.0°F
2018-04-19 23:56 32 27 24 81 300° 10 - 30.07 30.08 10 BKN070 OVC110 None
2018-04-19 22:56 31 27 23 85 300° 9 - 30.07 30.08 10 SCT060 OVC095 6-hr Precip Total (11pm): 0.00"
2018-04-19 21:56 31 27 22 85 320° 10 - 30.06 30.07 10 FEW019 SCT037 BKN100 1-hr Precip Total: Trace
2018-04-19 20:56 32 27 24 81 310° 9 - 30.04 30.05 10 SCT055 OVC070 1-hr Precip Total: Trace
2018-04-19 19:56 33 27 25 77 330° 10 - 30.00 30.02 5 -SN FEW031 BKN055 OVC070 1-hr Precip Total: Trace
6-hr Precip Total (8pm): 0.01"
6-hr Min Temp (8pm): 33.1°F
6-hr Max Temp (8pm): 37.0°F
2018-04-19 19:21 34 27 27 75 340° 8 - 29.98 - 9 SCT032 BKN055 OVC070 1-hr Precip Total: Trace
2018-04-19 19:12 33 28 20 81 330° 12 24 29.98 - 2 -SN FEW028 BKN037 OVC065 1-hr Precip Total: Trace
2018-04-19 18:56 35 27 27 72 320° 12 - 29.97 29.98 10 SCT032 BKN041 OVC070 None
2018-04-19 17:56 36 27 27 69 330° 14 - 29.93 29.95 10 BKN036 BKN044 OVC070 1-hr Precip Total: Trace
2018-04-19 16:56 36 30 28 78 330° 12 - 29.91 29.92 9 FEW024 BKN034 OVC046 1-hr Precip Total: Trace
6-hr Precip Total (5pm): 0.01"
2018-04-19 16:49 36 31 28 81 300° 12 - 29.90 - 3 -SN FEW021 BKN029 OVC046 1-hr Precip Total: Trace
2018-04-19 16:34 35 31 27 84 330° 12 - 29.90 - 1 -SN BR BKN025 BKN029 OVC035 1-hr Precip Total: Trace
2018-04-19 16:26 34 30 24 85 340° 15 - 29.90 - 1 -SN BR SCT022 BKN030 OVC038 1-hr Precip Total: Trace
2018-04-19 16:23 35 30 25 81 350° 16 - 29.90 - 2 -SN SCT022 BKN028 OVC038 1-hr Precip Total: Trace
2018-04-19 16:02 35 31 29 84 320° 7 - 29.89 - 3 -SN BR FEW017 OVC036 1-hr Precip Total: Trace
2018-04-19 15:56 35 33 27 92 310° 10 - 29.89 29.90 1 -SN BR FEW015 OVC036 1-hr Precip Total: Trace
2018-04-19 15:44 35 31 26 84 330° 15 - 29.89 - 0 -SN BR FEW012 SCT020 OVC034 1-hr Precip Total: Trace
2018-04-19 15:32 36 33 30 89 340° 8 - 29.88 - 2 -SN BR SCT014 BKN032 OVC047 1-hr Precip Total: Trace
2018-04-19 15:11 36 33 28 89 320° 12 - 29.88 - 1 -SN BR SCT015 BKN022 OVC034 Variable visibility
1-hr Precip Total: Trace
2018-04-19 15:03 36 33 28 89 340° 12 - 29.88 - 2 -SN BR SCT015 BKN020 OVC034 Variable visibility
1-hr Precip Total: Trace
2018-04-19 14:56 36 32 29 85 330° 9 - 29.87 29.88 1 -SN BR FEW015 BKN026 OVC041 1-hr Precip Total: 0.01"
2018-04-19 14:47 34 31 23 88 320° 9 18 29.87 - 0 -SN BR BKN015 BKN021 OVC027 1-hr Precip Total: 0.01"
2018-04-19 14:30 35 32 26 88 280° 13 - 29.86 - 1 -SN BR SCT010 BKN018 OVC035 1-hr Precip Total: Trace
2018-04-19 14:14 36 34 29 92 270° 9 - 29.86 - 3 -SN BR FEW010 BKN026 OVC044 1-hr Precip Total: Trace
2018-04-19 14:04 36 34 28 92 300° 12 - 29.86 - 1 -SN BR FEW008 BKN024 OVC034 1-hr Precip Total: Trace
2018-04-19 13:56 35 32 27 88 280° 12 - 29.85 29.86 0 -SN BR FEW010 BKN027 OVC036 1-hr Precip Total: Trace
6-hr Precip Total (2pm): 0.00"
6-hr Min Temp (2pm): 32.0°F
6-hr Max Temp (2pm): 36.0°F
2018-04-19 13:51 36 32 26 86 280° 15 - 29.85 - 0 -SN BR SCT018 BKN027 OVC036 1-hr Precip Total: Trace
2018-04-19 13:43 35 31 26 84 300° 14 - 29.85 - 1 -SN BR BKN020 BKN030 OVC038 1-hr Precip Total: Trace
2018-04-19 13:20 34 29 25 81 290° 12 - 29.84 - 0 -SN FEW019 BKN029 OVC036 1-hr Precip Total: Trace
2018-04-19 13:16 34 29 25 81 300° 12 - 29.84 - 1 -SN SCT024 OVC034 1-hr Precip Total: Trace
2018-04-19 13:09 35 28 27 75 310° 10 - 29.84 - 2 -SN FEW024 OVC034 1-hr Precip Total: Trace
2018-04-19 12:56 35 28 27 75 300° 12 - 29.83 29.85 5 -SN FEW026 OVC033 1-hr Precip Total: Trace
2018-04-19 11:56 35 28 27 75 300° 12 - 29.82 29.83 8 BKN031 OVC038 None
2018-04-19 10:56 35 27 29 72 330° 8 - 29.80 29.81 10 FEW026 OVC034 6-hr Precip Total (11am): 0.00"
2018-04-19 10:27 35 28 30 75 10° 6 - 29.80 - 10 FEW021 SCT029 OVC035 None
2018-04-19 09:56 34 28 29 78 330° 6 - 29.79 29.80 10 FEW020 OVC028 1-hr Precip Total: Trace
2018-04-19 08:56 32 30 26 92 350° 6 - 29.78 29.79 5 -SN BR OVC024 1-hr Precip Total: Trace
2018-04-19 07:56 32 30 27 92 20° 5 - 29.78 29.79 9 OVC025 1-hr Precip Total: Trace
6-hr Precip Total (8am): 0.00"
6-hr Min Temp (8am): 32.0°F
6-hr Max Temp (8am): 35.1°F
2018-04-19 07:24 32 30 26 92 360° 7 - 29.77 - 10 FEW008 BKN021 OVC026 1-hr Precip Total: Trace
2018-04-19 07:13 32 31 26 95 360° 6 - 29.77 - 10 FEW005 BKN013 OVC026 1-hr Precip Total: Trace
2018-04-19 07:03 32 31 26 95 340° 7 - 29.77 - 3 BR BKN007 BKN013 OVC020 1-hr Precip Total: Trace
2018-04-19 06:56 32 32 26 100 30° 7 - 29.76 29.77 1 -SN BR BKN007 OVC012 Variable visibility
1-hr Precip Total: Trace
2018-04-19 06:36 32 31 24 95 10° 9 - 29.75 - 1 -SN BR BKN009 BKN015 OVC050 1-hr Precip Total: Trace

Support USWX by starting your Amazon purchase here.